Weather reports worldwide

Advertisment
Cairnwell, United Kingdom (3072): temperature & dewpoint: 21.04.2017 04:00:00 - 27.04.2017 04:00:00 (BST)Cairnwell, United Kingdom (3072): wind speed & gusts: 21.04.2017 04:00:00 - 27.04.2017 04:00:00 (BST)Cairnwell, United Kingdom (3072): wind direction: 21.04.2017 04:00:00 - 27.04.2017 04:00:00 (BST)
Date & Time tt [°C] td [°C] ff [km/h] ff [kn] fx [km/h] fx [kn] dd
27.04.2017 04:00:00 -0,2 -0,4 26 14 55 30 NNW
27.04.2017 03:00:00 -0,1 -0,3 24 13 59 32 WNW
27.04.2017 02:00:00 -0,1 -0,3 39 21 67 36 NW
27.04.2017 01:00:00 -0,1 -0,3 52 28 68 37 NW
27.04.2017 00:00:00 -0,3 -0,4 41 22 57 31 NW
26.04.2017 23:00:00 -0,6 -0,8 57 31 70 38 NW
26.04.2017 22:00:00 -0,7 -1,0 57 31 67 36 NW
26.04.2017 21:00:00 -0,7 -1,3 42 23 55 30 WNW
26.04.2017 20:00:00 -0,6 -1,9 41 22 50 27 WNW
26.04.2017 19:00:00 -0,8 -3,3 42 23 55 30 NW
26.04.2017 18:00:00 -0,8 -4,8 21 11 46 25 NW
26.04.2017 17:00:00 -1,2 -5,7 35 19 46 25 NW
26.04.2017 16:00:00 -1,9 -7,0 31 17 - - NW
26.04.2017 15:00:00 -2,4 -6,6 29 16 52 28 NNW
26.04.2017 14:00:00 -2,9 -6,0 41 22 54 29 NNW
26.04.2017 13:00:00 -3,4 -6,1 42 23 57 31 NNW
26.04.2017 12:00:00 -3,7 -6,2 50 27 68 37 N
26.04.2017 11:00:00 -4,2 -5,9 67 36 85 46 NNW
26.04.2017 10:00:00 -4,7 -6,0 54 29 68 37 N
26.04.2017 09:00:00 -5,1 -7,0 55 30 68 37 NNW
26.04.2017 08:00:00 -5,3 -7,3 55 30 67 36 NNW
26.04.2017 07:00:00 -5,6 -6,5 55 30 63 34 NNW
26.04.2017 06:00:00 -5,4 -6,2 39 21 63 34 N
26.04.2017 05:00:00 -5,1 -5,8 42 23 78 42 N
26.04.2017 04:00:00 -4,8 -5,4 57 31 74 40 NNW
26.04.2017 03:00:00 -4,6 -5,1 52 28 63 34 N
26.04.2017 02:00:00 -4,7 -5,2 44 24 70 38 NNW
26.04.2017 01:00:00 -4,7 -5,2 41 22 74 40 N
26.04.2017 00:00:00 -4,6 -5,2 39 21 67 36 N
25.04.2017 23:00:00 -4,6 -5,2 41 22 72 39 N
25.04.2017 22:00:00 -4,5 -5,9 52 28 83 45 N
25.04.2017 21:00:00 -4,0 -4,8 59 32 98 53 N
25.04.2017 20:00:00 -4,1 -5,4 72 39 106 57 N
25.04.2017 19:00:00 -3,7 -6,1 67 36 94 51 N
25.04.2017 18:00:00 -3,4 -4,4 55 30 87 47 N
25.04.2017 17:00:00 -3,6 -4,7 59 32 83 45 N
25.04.2017 16:00:00 -3,1 -5,4 55 30 87 47 N
25.04.2017 15:00:00 -3,4 -5,4 67 36 111 60 N
25.04.2017 14:00:00 -3,1 -3,9 78 42 113 61 N
25.04.2017 13:00:00 -3,5 -4,0 81 44 104 56 N
25.04.2017 12:00:00 -3,3 -3,6 68 37 106 57 N
25.04.2017 11:00:00 -3,5 -3,8 76 41 107 58 NNW
25.04.2017 10:00:00 -3,7 -4,2 80 43 107 58 NNW
25.04.2017 09:00:00 -4,0 -4,4 87 47 117 63 NNW
25.04.2017 08:00:00 -4,1 -4,6 100 54 124 67 NNW
25.04.2017 07:00:00 -4,2 -4,7 89 48 128 69 NNW
25.04.2017 06:00:00 -4,2 -4,7 100 54 119 64 NNW
25.04.2017 05:00:00 -4,4 -5,0 80 43 115 62 NNW
25.04.2017 04:00:00 -4,1 -4,6 72 39 85 46 NNW
25.04.2017 03:00:00 -4,3 -4,8 59 32 80 43 NNW
25.04.2017 02:00:00 -4,8 -5,4 61 33 85 46 NNW
25.04.2017 01:00:00 -5,5 -6,1 42 23 78 42 N
25.04.2017 00:00:00 -5,5 -6,2 65 35 89 48 N
24.04.2017 23:00:00 -5,7 -6,4 89 48 115 62 NNE
24.04.2017 22:00:00 -4,6 -5,1 46 25 65 35 NW
24.04.2017 21:00:00 -4,7 -5,2 52 28 59 32 NW
24.04.2017 20:00:00 -4,6 -6,2 50 27 65 35 WNW
24.04.2017 19:00:00 -3,7 -8,5 48 26 70 38 NW
24.04.2017 18:00:00 -4,0 -8,7 61 33 96 52 NNW
24.04.2017 17:00:00 -5,3 -10,2 78 42 104 56 NNW
24.04.2017 16:00:00 -5,4 -6,6 78 42 104 56 NW
24.04.2017 15:00:00 -5,2 -5,9 89 48 130 70 NNW
24.04.2017 14:00:00 -4,2 -6,0 87 47 126 68 NW
24.04.2017 13:00:00 -2,7 -4,3 63 34 83 45 NW
24.04.2017 12:00:00 -2,9 -4,1 57 31 83 45 WNW
24.04.2017 11:00:00 -2,2 -5,4 46 25 81 44 W
24.04.2017 10:00:00 -3,0 -6,4 54 29 87 47 W
24.04.2017 09:00:00 -3,0 -6,1 59 32 83 45 WNW
24.04.2017 08:00:00 -3,4 -4,9 16 9 61 33 WNW
24.04.2017 07:00:00 -3,1 -5,1 34 18 61 33 NW
24.04.2017 06:00:00 -3,0 -4,6 41 22 63 34 NW
24.04.2017 05:00:00 -2,5 -2,9 28 15 50 27 NW
24.04.2017 04:00:00 -2,3 -3,0 50 27 68 37 NNW
24.04.2017 03:00:00 -2,2 -2,6 50 27 76 41 NNW
24.04.2017 02:00:00 -1,5 -1,9 61 33 87 47 NNW
24.04.2017 01:00:00 -0,6 -1,0 63 34 89 48 NW
24.04.2017 00:00:00 1,7 1,4 61 33 87 47 W
23.04.2017 23:00:00 1,7 1,4 46 25 74 40 W
23.04.2017 22:00:00 1,7 0,9 52 28 83 45 W
23.04.2017 21:00:00 1,7 0,3 41 22 67 36 W
23.04.2017 20:00:00 1,9 -0,4 44 24 72 39 W
23.04.2017 19:00:00 3,0 -1,3 39 21 61 33 W
23.04.2017 18:00:00 3,1 -0,9 37 20 57 31 W
23.04.2017 17:00:00 3,4 -1,9 31 17 65 35 WSW
23.04.2017 16:00:00 3,3 -1,9 50 27 68 37 W
23.04.2017 15:00:00 2,8 -2,3 44 24 67 36 W
23.04.2017 14:00:00 2,3 -2,3 39 21 57 31 W
23.04.2017 13:00:00 2,3 -3,6 29 16 54 29 W
23.04.2017 12:00:00 1,5 -2,6 29 16 52 28 W
23.04.2017 11:00:00 1,1 -2,3 41 22 55 30 W
23.04.2017 10:00:00 -0,3 -3,4 28 15 52 28 W
23.04.2017 09:00:00 -1,1 -2,8 34 18 - - WNW
23.04.2017 08:00:00 -1,5 -2,9 29 16 - - W
23.04.2017 07:00:00 -1,6 -2,7 21 11 - - W
23.04.2017 06:00:00 -1,7 -2,5 18 10 - - WNW
23.04.2017 05:00:00 -1,8 -2,3 29 16 46 25 WNW
23.04.2017 04:00:00 -1,8 -2,2 35 19 46 25 WNW
23.04.2017 03:00:00 -1,8 -2,2 37 20 46 25 WNW
23.04.2017 02:00:00 -1,6 -2,0 37 20 - - WNW
23.04.2017 01:00:00 -1,4 -2,4 28 15 - - WNW
23.04.2017 00:00:00 -1,4 -2,8 21 11 - - WNW
22.04.2017 23:00:00 -1,3 -3,5 16 9 - - NNW
22.04.2017 22:00:00 -1,1 -3,3 29 16 - - NNW
22.04.2017 21:00:00 -0,7 -2,5 21 11 - - NNW
22.04.2017 20:00:00 -0,4 -1,8 28 15 - - NW
22.04.2017 19:00:00 -0,8 -2,3 35 19 - - NW
22.04.2017 18:00:00 0,6 -3,8 37 20 - - NW
22.04.2017 17:00:00 0,5 -4,2 13 7 46 25 WNW
22.04.2017 16:00:00 0,6 -4,5 41 22 59 32 WNW
22.04.2017 15:00:00 0,7 -4,0 34 18 52 28 WNW
22.04.2017 14:00:00 0,3 -5,7 21 11 50 27 NNW
22.04.2017 13:00:00 -0,2 -6,0 31 17 54 29 NW
22.04.2017 12:00:00 -1,1 -7,1 44 24 68 37 NNW
22.04.2017 11:00:00 -1,8 -6,2 42 23 70 38 NNW
22.04.2017 10:00:00 -2,1 -5,1 34 18 54 29 NW
22.04.2017 09:00:00 -2,5 -5,9 28 15 46 25 NNW
22.04.2017 08:00:00 -2,8 -4,6 28 15 57 31 NNW
22.04.2017 07:00:00 -2,1 -3,8 52 28 63 34 NNW
22.04.2017 06:00:00 -2,3 -3,2 48 26 57 31 NW
22.04.2017 05:00:00 -2,3 -2,8 41 22 57 31 NW
22.04.2017 04:00:00 -1,9 -2,7 39 21 48 26 NW
22.04.2017 03:00:00 -2,1 -3,7 35 19 54 29 NW
22.04.2017 02:00:00 -2,3 -3,1 46 25 65 35 NW
22.04.2017 01:00:00 -1,4 -3,0 29 16 48 26 NW
22.04.2017 00:00:00 -0,8 -4,1 41 22 59 32 NNW
21.04.2017 23:00:00 -1,8 -3,0 50 27 65 35 NNW
21.04.2017 22:00:00 -0,4 -3,0 42 23 57 31 NW
21.04.2017 21:00:00 0,1 -2,9 44 24 57 31 NNW
21.04.2017 20:00:00 0,4 -2,9 42 23 55 30 NNW
21.04.2017 19:00:00 0,7 -1,4 37 20 67 36 NNW
21.04.2017 18:00:00 0,5 -1,2 52 28 74 40 NNW
21.04.2017 17:00:00 3,2 -1,1 46 25 74 40 NW
21.04.2017 16:00:00 2,5 -0,1 55 30 72 39 NW
21.04.2017 15:00:00 2,9 -0,2 48 26 65 35 WNW
21.04.2017 14:00:00 3,2 -0,8 54 29 83 45 NW
21.04.2017 13:00:00 2,3 1,4 52 28 68 37 NW
21.04.2017 12:00:00 2,0 1,7 31 17 57 31 N
21.04.2017 11:00:00 3,1 2,7 44 24 70 38 NW
21.04.2017 10:00:00 4,2 4,0 68 37 83 45 WNW
21.04.2017 09:00:00 4,6 4,4 57 31 93 50 W
21.04.2017 08:00:00 4,5 4,2 63 34 89 48 W
21.04.2017 07:00:00 4,5 4,0 61 33 85 46 W
21.04.2017 06:00:00 4,3 3,8 54 29 93 50 W
21.04.2017 05:00:00 4,3 3,9 48 26 72 39 W
21.04.2017 04:00:00 4,5 3,8 48 26 72 39 W

tt = temperature
td = dewpoint
ff = wind speed
fx = gusts
dd = wind direction

Next stations